Lancaster, OH (43130)

10:22 PM EST en Enero 26, 2015 (GMT -0500)
Fairfield County Weather | Change Station
CLOSE
Current Station
Estación meteorológica personal
Location: Lancaster, OH
Altura: 958 ft
Estaciones meteorológicas cercanas

Alt 958 ft 39.75 °N, 82.57 °W | Updated 4 seconds ago

Nublado
Nublado
14.3 ° F
Sensación térmica 14 ° F
N
0.0
Viento Variable Viento desde Norte
Gusts 2.0 mph

Hoy
Alta -- | Baja -- ° F
--% Posibilidad de precipitaciones
Ayer
Alta -- | Baja -- ° F
Precip. -- pul
7:43 AM 5:42 PM
Creciente, 49% visible
Presión 29.99 pul
Visibilidad 6.0 Millas
Nubes Baja 2000 ft
Vientos helados 14 ° F
Punto de rocío 9 ° F
Humedad 78%
Precipitaciones 0.11 pul
Espesor de la nieve No disponible.
UV 0 de una escala de 12
Polen .10 de una escala de 12
Calidad del aire No disponible.
Flu Activity No disponible.
METAR KLHQ 270253Z AUTO 00000KT 6SM BR FEW020 M14/M16 A2994 RMK AO2 SLP153 I1000 I3000 T11391161 51001

More Conditions Fewer Conditions

Presión 29.99 pul
Visibilidad 6.0 Millas
Nubes Baja 2000 ft
Vientos helados 14 ° F
Punto de rocío 9 ° F
Humedad 78%
Precipitaciones 0.11 pul
Espesor de la nieve No disponible.
UV 0 de una escala de 12
Polen .10 de una escala de 12
Calidad del aire No disponible.
Flu Activity No disponible.
METAR KLHQ 270253Z AUTO 00000KT 6SM BR FEW020 M14/M16 A2994 RMK AO2 SLP153 I1000 I3000 T11391161 51001

More Conditions Fewer Conditions

10-Day Weather Forecast

Almanac

Astronomía

Jan. 26, 2015 Salida Puesta
Hora real
Crepúsculo civil
Crepúsculo náutico
Crepúsculo astronómico
Luna
Horas de luz
Horas de luz
Tomorrow will be .
, % of the Moon is Illuminated

Extremos de hoy

Máximos del estado Bajos del estado

Community

WunderPhotos

Upload Photos

1,790,499 ¡fotos cargadas!

WunderBlogs® & News

Nearby

Calidad del aire

  Calidad del aire Índice AQ Contaminante
Not available.

Grosos de nieve

Estación Profundido Altura

Actividad de terremotos

Ciudad Distance Mag. Tiempo y dato
Magnitud mínima muestra es 2,5.

Temperaturas de aguas costeras

Lugar Temperatura

Estaciones meteorológicas cercanas